Time;durP1;ratioP1;P1;durP2;ratioP2;P2;SDS_P1;SDS_P2;PMS_P1;PMS_P2;Temp;Humidity;BMP_temperature;BMP_pressure;BME280_temperature;BME280_humidity;BME280_pressure;Samples;Min_cycle;Max_cycle;Signal;HPM_P1;HPM_P2
2023/07/31 00:01:30;;;;;;;3.28;2.33;;;;;;;;;;5049004;28;20113;-69
2023/07/31 00:03:57;;;;;;;3.97;2.58;;;;;;;;;;5045837;28;20074;-70
2023/07/31 00:06:23;;;;;;;4.53;2.47;;;;;;;;;;5050469;28;20139;-69
2023/07/31 00:08:49;;;;;;;6.05;2.53;;;;;;;;;;5047397;28;20040;-69
2023/07/31 00:11:15;;;;;;;5.60;2.60;;;;;;;;;;5047552;28;20333;-69
2023/07/31 00:13:41;;;;;;;3.05;2.08;;;;;;;;;;5054998;28;20051;-71
2023/07/31 00:16:07;;;;;;;3.88;3.17;;;;;;;;;;5051835;28;20122;-69
2023/07/31 00:18:33;;;;;;;5.00;2.28;;;;;;;;;;5057412;28;20032;-70
2023/07/31 00:21:00;;;;;;;5.35;2.47;;;;;;;;;;5048137;28;20524;-70
2023/07/31 00:23:26;;;;;;;4.35;2.40;;;;;;;;;;5050626;28;20071;-69
2023/07/31 00:25:52;;;;;;;3.70;2.25;;;;;;;;;;5049839;28;20033;-69
2023/07/31 00:28:18;;;;;;;5.90;2.22;;;;;;;;;;5044785;28;20037;-69
2023/07/31 00:30:44;;;;;;;5.03;2.40;;;;;;;;;;5051063;28;20053;-69
2023/07/31 00:33:11;;;;;;;5.80;2.33;;;;;;;;;;5050488;28;20468;-69
2023/07/31 00:35:37;;;;;;;3.13;1.90;;;;;;;;;;5051428;28;20526;-69
2023/07/31 00:38:03;;;;;;;6.43;3.10;;;;;;;;;;5048816;28;20032;-70
2023/07/31 00:40:29;;;;;;;7.88;2.72;;;;;;;;;;5065530;28;20450;-69
2023/07/31 00:42:55;;;;;;;6.57;2.50;;;;;;;;;;5052847;28;20028;-69
2023/07/31 00:45:22;;;;;;;5.65;2.30;;;;;;;;;;5054489;28;20029;-70
2023/07/31 00:47:49;;;;;;;7.88;2.83;;;;;;;;;;5054807;28;20028;-70
2023/07/31 00:50:15;;;;;;;5.13;2.20;;;;;;;;;;5055611;28;20048;-69
2023/07/31 00:52:41;;;;;;;4.53;2.42;;;;;;;;;;5057658;28;20051;-70
2023/07/31 00:55:07;;;;;;;3.33;2.17;;;;;;;;;;5064959;28;20529;-70
2023/07/31 00:57:34;;;;;;;3.60;2.60;;;;;;;;;;5052052;28;20421;-69
2023/07/31 01:00:00;;;;;;;3.63;2.47;;;;;;;;;;5053404;28;20057;-69
2023/07/31 01:02:26;;;;;;;2.22;1.75;;;;;;;;;;5072129;28;20029;-70
2023/07/31 01:04:52;;;;;;;4.72;2.25;;;;;;;;;;5059380;28;20028;-69
2023/07/31 01:07:22;;;;;;;4.45;2.30;;;;;;;;;;5052530;28;20036;-69
2023/07/31 01:10:07;;;;;;;3.15;2.10;;;;;;;;;;5050127;28;20047;-69
2023/07/31 01:12:34;;;;;;;3.53;2.00;;;;;;;;;;5048542;28;20490;-69
2023/07/31 01:15:14;;;;;;;2.35;1.98;;;;;;;;;;5050050;28;20440;-70
2023/07/31 01:17:41;;;;;;;2.90;2.22;;;;;;;;;;5058864;28;20016;-69
2023/07/31 01:20:27;;;;;;;3.08;1.90;;;;;;;;;;5060778;28;20048;-70
2023/07/31 01:23:02;;;;;;;4.47;2.20;;;;;;;;;;5059354;28;20033;-69
2023/07/31 01:25:28;;;;;;;;;;;;;;;;;;5047641;28;20025;-69
2023/07/31 01:28:00;;;;;;;3.55;1.98;;;;;;;;;;5082654;28;19957;-70
2023/07/31 01:30:28;;;;;;;3.22;2.10;;;;;;;;;;5062496;28;20021;-70
2023/07/31 01:32:55;;;;;;;3.60;2.17;;;;;;;;;;5054678;28;20033;-69
2023/07/31 01:35:21;;;;;;;4.38;2.10;;;;;;;;;;5051610;28;20598;-69
2023/07/31 01:37:47;;;;;;;3.05;1.95;;;;;;;;;;5065828;28;20036;-69
2023/07/31 01:40:13;;;;;;;3.45;1.88;;;;;;;;;;5063535;28;20521;-69
2023/07/31 01:42:39;;;;;;;3.22;2.08;;;;;;;;;;5074334;28;20033;-69
2023/07/31 01:45:05;;;;;;;4.45;2.28;;;;;;;;;;5059694;28;20021;-69
2023/07/31 01:47:32;;;;;;;2.50;1.83;;;;;;;;;;5053073;28;20082;-70
2023/07/31 01:49:58;;;;;;;3.72;2.30;;;;;;;;;;5059715;28;20056;-69
2023/07/31 01:52:24;;;;;;;2.65;2.03;;;;;;;;;;5056997;28;20032;-69
2023/07/31 01:54:50;;;;;;;7.65;2.10;;;;;;;;;;5053193;28;20527;-69
2023/07/31 01:57:16;;;;;;;3.22;2.13;;;;;;;;;;5081348;28;20067;-70
2023/07/31 01:59:42;;;;;;;2.67;1.80;;;;;;;;;;5052254;28;20391;-69
2023/07/31 02:02:08;;;;;;;2.40;1.75;;;;;;;;;;5062550;28;20037;-70
2023/07/31 02:04:34;;;;;;;2.55;1.90;;;;;;;;;;5052812;28;20052;-70
2023/07/31 02:07:01;;;;;;;2.63;1.77;;;;;;;;;;5065660;28;20333;-71
2023/07/31 02:09:27;;;;;;;5.18;1.90;;;;;;;;;;5063218;28;20033;-72
2023/07/31 02:11:53;;;;;;;2.72;1.90;;;;;;;;;;5048008;28;20035;-72
2023/07/31 02:14:19;;;;;;;2.25;1.88;;;;;;;;;;5045635;28;20397;-71
2023/07/31 02:16:45;;;;;;;2.10;1.70;;;;;;;;;;5052002;28;20554;-72
2023/07/31 02:19:11;;;;;;;1.70;1.55;;;;;;;;;;5046283;28;20480;-71
2023/07/31 02:21:37;;;;;;;4.15;1.90;;;;;;;;;;5046636;28;20425;-72
2023/07/31 02:24:03;;;;;;;3.30;1.90;;;;;;;;;;5043696;28;20500;-71
2023/07/31 02:26:30;;;;;;;3.20;1.90;;;;;;;;;;5046740;28;20033;-71
2023/07/31 02:28:56;;;;;;;3.10;2.13;;;;;;;;;;5048021;28;20032;-71
2023/07/31 02:31:22;;;;;;;2.72;1.77;;;;;;;;;;5047698;28;20083;-71
2023/07/31 02:33:48;;;;;;;4.55;1.98;;;;;;;;;;5052454;28;20041;-71
2023/07/31 02:36:15;;;;;;;2.05;1.73;;;;;;;;;;5059562;28;20036;-71
2023/07/31 02:38:41;;;;;;;2.47;1.70;;;;;;;;;;5046215;28;20438;-72
2023/07/31 02:41:07;;;;;;;3.47;1.65;;;;;;;;;;5045292;28;20029;-71
2023/07/31 02:43:33;;;;;;;2.25;1.75;;;;;;;;;;5047595;28;20044;-72
2023/07/31 02:46:00;;;;;;;2.20;1.67;;;;;;;;;;5044117;28;20035;-71
2023/07/31 02:48:26;;;;;;;4.45;2.00;;;;;;;;;;5048305;28;20028;-72
2023/07/31 02:50:52;;;;;;;2.33;1.33;;;;;;;;;;5049362;28;20503;-71
2023/07/31 02:53:18;;;;;;;2.72;2.15;;;;;;;;;;5044876;28;20071;-71
2023/07/31 02:55:44;;;;;;;2.20;1.65;;;;;;;;;;5045419;28;20449;-72
2023/07/31 02:58:10;;;;;;;2.75;1.67;;;;;;;;;;5052263;28;20044;-71
2023/07/31 03:00:37;;;;;;;1.52;1.42;;;;;;;;;;5045929;28;20032;-72
2023/07/31 03:03:03;;;;;;;4.20;2.50;;;;;;;;;;5044508;28;20059;-71
2023/07/31 03:05:29;;;;;;;2.58;1.58;;;;;;;;;;5053298;28;20094;-71
2023/07/31 03:07:55;;;;;;;1.67;1.50;;;;;;;;;;5047658;28;20496;-71
2023/07/31 03:10:21;;;;;;;2.78;1.30;;;;;;;;;;5044554;28;20028;-71
2023/07/31 03:12:48;;;;;;;3.13;1.60;;;;;;;;;;5042735;28;20036;-71
2023/07/31 03:15:14;;;;;;;1.80;1.58;;;;;;;;;;5044770;28;20083;-72
2023/07/31 03:17:40;;;;;;;1.30;1.20;;;;;;;;;;5042821;28;20029;-71
2023/07/31 03:20:06;;;;;;;2.63;1.83;;;;;;;;;;5042913;28;20056;-71
2023/07/31 03:22:32;;;;;;;4.05;1.60;;;;;;;;;;5049135;28;20028;-71
2023/07/31 03:24:58;;;;;;;2.10;1.65;;;;;;;;;;5042632;28;20381;-71
2023/07/31 03:27:25;;;;;;;1.45;1.35;;;;;;;;;;5044777;28;20061;-71
2023/07/31 03:29:51;;;;;;;1.60;1.50;;;;;;;;;;5043240;28;20728;-72
2023/07/31 03:32:17;;;;;;;2.03;1.70;;;;;;;;;;5050848;28;20089;-71
2023/07/31 03:34:44;;;;;;;2.95;1.45;;;;;;;;;;5043361;28;20048;-72
2023/07/31 03:37:10;;;;;;;1.55;1.40;;;;;;;;;;5044912;28;20032;-71
2023/07/31 03:39:36;;;;;;;3.22;2.92;;;;;;;;;;5041128;28;20520;-71
2023/07/31 03:42:02;;;;;;;2.47;1.70;;;;;;;;;;5057930;28;20071;-72
2023/07/31 03:44:28;;;;;;;2.08;1.50;;;;;;;;;;5044131;28;20139;-73
2023/07/31 03:46:56;;;;;;;3.13;1.60;;;;;;;;;;5045037;28;20029;-72
2023/07/31 03:49:23;;;;;;;1.38;1.27;;;;;;;;;;5041397;28;20454;-72
2023/07/31 03:51:49;;;;;;;1.48;1.38;;;;;;;;;;5042559;28;20035;-71
2023/07/31 03:54:15;;;;;;;3.25;1.50;;;;;;;;;;5041087;28;20502;-71
2023/07/31 03:56:41;;;;;;;2.25;1.45;;;;;;;;;;5040844;28;20036;-71
2023/07/31 03:59:07;;;;;;;1.85;1.63;;;;;;;;;;5042993;28;20024;-72
2023/07/31 04:01:33;;;;;;;1.70;1.60;;;;;;;;;;5042923;28;20086;-71
2023/07/31 04:04:00;;;;;;;2.83;1.60;;;;;;;;;;5054411;28;20491;-72
2023/07/31 04:06:26;;;;;;;2.08;1.58;;;;;;;;;;5044226;28;20098;-72
2023/07/31 04:08:52;;;;;;;3.35;1.70;;;;;;;;;;5041510;28;20563;-71
2023/07/31 04:11:18;;;;;;;3.22;1.45;;;;;;;;;;5043059;28;20716;-71
2023/07/31 04:13:44;;;;;;;4.55;1.58;;;;;;;;;;5038549;28;20424;-72
2023/07/31 04:16:10;;;;;;;1.55;1.45;;;;;;;;;;5045237;28;20029;-71
2023/07/31 04:18:36;;;;;;;1.70;1.60;;;;;;;;;;5044523;28;20830;-71
2023/07/31 04:21:02;;;;;;;1.88;1.73;;;;;;;;;;5044593;28;20935;-71
2023/07/31 04:23:28;;;;;;;2.50;1.60;;;;;;;;;;5041880;28;20549;-72
2023/07/31 04:25:54;;;;;;;2.22;1.60;;;;;;;;;;5042970;28;20025;-71
2023/07/31 04:28:21;;;;;;;1.75;1.63;;;;;;;;;;5044564;28;20287;-71
2023/07/31 04:30:47;;;;;;;2.45;1.70;;;;;;;;;;5057950;28;20037;-72
2023/07/31 04:33:13;;;;;;;2.67;1.77;;;;;;;;;;5040376;28;20033;-72
2023/07/31 04:35:39;;;;;;;1.70;1.60;;;;;;;;;;5039417;28;20512;-72
2023/07/31 04:38:05;;;;;;;4.03;1.75;;;;;;;;;;5040784;28;20412;-71
2023/07/31 04:40:31;;;;;;;1.75;1.40;;;;;;;;;;5042880;28;20098;-72
2023/07/31 04:42:58;;;;;;;2.15;1.80;;;;;;;;;;5046043;28;20029;-72
2023/07/31 04:45:24;;;;;;;1.70;1.60;;;;;;;;;;5040350;28;20111;-71
2023/07/31 04:47:50;;;;;;;2.47;1.50;;;;;;;;;;5040157;28;20044;-72
2023/07/31 04:50:16;;;;;;;2.10;1.73;;;;;;;;;;5041054;28;20040;-71
2023/07/31 04:52:42;;;;;;;3.45;1.73;;;;;;;;;;5045867;28;20028;-72
2023/07/31 04:55:08;;;;;;;2.10;1.73;;;;;;;;;;5055232;28;20029;-72
2023/07/31 04:57:34;;;;;;;1.70;1.60;;;;;;;;;;5057907;28;20041;-72
2023/07/31 05:00:00;;;;;;;3.22;1.77;;;;;;;;;;5042484;28;20108;-71
2023/07/31 05:02:26;;;;;;;2.08;1.67;;;;;;;;;;5040538;28;20033;-72
2023/07/31 05:04:53;;;;;;;3.72;1.65;;;;;;;;;;5044090;28;20146;-71
2023/07/31 05:07:19;;;;;;;1.63;1.52;;;;;;;;;;5040489;28;20548;-72
2023/07/31 05:09:45;;;;;;;2.80;1.83;;;;;;;;;;5042772;28;20208;-72
2023/07/31 05:12:11;;;;;;;2.53;1.60;;;;;;;;;;5041772;28;20470;-72
2023/07/31 05:14:37;;;;;;;3.00;1.92;;;;;;;;;;5049738;28;20033;-72
2023/07/31 05:17:03;;;;;;;4.38;1.80;;;;;;;;;;5045173;28;20052;-72
2023/07/31 05:19:29;;;;;;;2.67;1.85;;;;;;;;;;5040132;28;20042;-72
2023/07/31 05:21:55;;;;;;;3.15;1.98;;;;;;;;;;5041552;28;20547;-72
2023/07/31 05:24:21;;;;;;;3.03;1.73;;;;;;;;;;5051631;28;20033;-71
2023/07/31 05:26:48;;;;;;;4.85;2.10;;;;;;;;;;5042493;28;20106;-72
2023/07/31 05:29:14;;;;;;;3.78;1.98;;;;;;;;;;5044795;28;20040;-72
2023/07/31 05:31:40;;;;;;;4.00;2.35;;;;;;;;;;5041692;28;20135;-71
2023/07/31 05:34:06;;;;;;;3.13;2.03;;;;;;;;;;5044947;28;20106;-72
2023/07/31 05:36:39;;;;;;;3.17;2.00;;;;;;;;;;5044902;28;20358;-72
2023/07/31 05:39:06;;;;;;;4.55;2.33;;;;;;;;;;5042061;28;20107;-72
2023/07/31 05:41:32;;;;;;;3.53;2.03;;;;;;;;;;5049935;28;20044;-71
2023/07/31 05:43:58;;;;;;;2.90;1.98;;;;;;;;;;5048691;28;20040;-71
2023/07/31 05:46:24;;;;;;;10.82;2.92;;;;;;;;;;5040761;28;20285;-71
2023/07/31 05:48:50;;;;;;;4.55;2.45;;;;;;;;;;5041438;28;20397;-72
2023/07/31 05:51:16;;;;;;;5.80;2.50;;;;;;;;;;5044715;28;20021;-71
2023/07/31 05:53:43;;;;;;;4.90;1.90;;;;;;;;;;5044311;28;20039;-72
2023/07/31 05:56:09;;;;;;;3.35;2.00;;;;;;;;;;5056981;28;20032;-72
2023/07/31 05:58:35;;;;;;;3.92;2.10;;;;;;;;;;5054450;28;20114;-71
2023/07/31 06:01:01;;;;;;;4.82;2.20;;;;;;;;;;5050924;28;20446;-71
2023/07/31 06:03:27;;;;;;;3.85;2.28;;;;;;;;;;5049251;28;20336;-71
2023/07/31 06:05:53;;;;;;;9.35;2.30;;;;;;;;;;5057087;28;20572;-72
2023/07/31 06:08:20;;;;;;;7.50;2.42;;;;;;;;;;5047428;28;20068;-71
2023/07/31 06:10:46;;;;;;;4.50;2.47;;;;;;;;;;5067003;28;20040;-69
2023/07/31 06:13:12;;;;;;;4.22;2.17;;;;;;;;;;5055341;28;20055;-71
2023/07/31 06:15:38;;;;;;;4.32;2.38;;;;;;;;;;5050225;28;20104;-70
2023/07/31 06:18:07;;;;;;;4.30;2.30;;;;;;;;;;5048578;28;20484;-71
2023/07/31 06:20:33;;;;;;;7.75;2.33;;;;;;;;;;5053179;28;20061;-70
2023/07/31 06:22:59;;;;;;;5.07;2.30;;;;;;;;;;5050152;28;21598;-71
2023/07/31 06:25:26;;;;;;;3.70;2.72;;;;;;;;;;5069678;28;20033;-71
2023/07/31 06:27:52;;;;;;;5.43;2.33;;;;;;;;;;5052729;28;20115;-71
2023/07/31 06:30:18;;;;;;;4.75;2.38;;;;;;;;;;5051503;28;20103;-71
2023/07/31 06:32:44;;;;;;;5.80;2.40;;;;;;;;;;5045853;28;20028;-71
2023/07/31 06:35:10;;;;;;;5.75;2.40;;;;;;;;;;5044939;28;20095;-71
2023/07/31 06:37:38;;;;;;;6.60;2.63;;;;;;;;;;5052724;28;20449;-71
2023/07/31 06:40:07;;;;;;;6.10;2.58;;;;;;;;;;5068791;28;20024;-71
2023/07/31 06:42:33;;;;;;;8.18;3.83;;;;;;;;;;5065707;28;20033;-71
2023/07/31 06:45:00;;;;;;;5.45;2.50;;;;;;;;;;5052257;28;20044;-72
2023/07/31 06:47:26;;;;;;;4.72;2.50;;;;;;;;;;5047532;28;20033;-70
2023/07/31 06:49:53;;;;;;;4.30;2.45;;;;;;;;;;5044193;28;20025;-71
2023/07/31 06:52:19;;;;;;;5.75;2.53;;;;;;;;;;5054077;28;20099;-71
2023/07/31 06:54:45;;;;;;;5.80;2.33;;;;;;;;;;5049201;28;20032;-71
2023/07/31 06:57:11;;;;;;;4.97;2.38;;;;;;;;;;5053397;28;20048;-71
2023/07/31 06:59:37;;;;;;;4.72;2.60;;;;;;;;;;5044670;28;20024;-71
2023/07/31 07:02:03;;;;;;;7.47;2.53;;;;;;;;;;5049174;28;20029;-71
2023/07/31 07:04:29;;;;;;;3.85;2.40;;;;;;;;;;5045866;28;20048;-71
2023/07/31 07:06:55;;;;;;;4.55;2.20;;;;;;;;;;5051363;28;20484;-71
2023/07/31 07:09:21;;;;;;;5.95;2.58;;;;;;;;;;5048700;28;20025;-71
2023/07/31 07:11:47;;;;;;;5.63;2.35;;;;;;;;;;5049910;28;20858;-71
2023/07/31 07:14:13;;;;;;;7.38;2.78;;;;;;;;;;5050880;28;20037;-71
2023/07/31 07:16:40;;;;;;;6.97;2.90;;;;;;;;;;5051216;28;20435;-71
2023/07/31 07:19:07;;;;;;;4.47;2.58;;;;;;;;;;5047023;28;20115;-71
2023/07/31 07:21:33;;;;;;;7.85;3.08;;;;;;;;;;5041811;28;20033;-71
2023/07/31 07:23:59;;;;;;;5.07;2.67;;;;;;;;;;5063055;28;20389;-72
2023/07/31 07:26:25;;;;;;;8.52;2.80;;;;;;;;;;5048771;28;20021;-72
2023/07/31 07:28:51;;;;;;;3.92;2.60;;;;;;;;;;5050328;28;20029;-71
2023/07/31 07:31:17;;;;;;;5.40;3.03;;;;;;;;;;5050770;28;20017;-71
2023/07/31 07:33:43;;;;;;;6.78;2.80;;;;;;;;;;5059067;28;20048;-71
2023/07/31 07:36:09;;;;;;;6.43;2.70;;;;;;;;;;5050056;28;20029;-71
2023/07/31 07:38:36;;;;;;;6.10;2.42;;;;;;;;;;5053077;28;21279;-71
2023/07/31 07:41:02;;;;;;;5.82;2.90;;;;;;;;;;5054472;28;20024;-71
2023/07/31 07:43:28;;;;;;;5.57;2.20;;;;;;;;;;5046725;28;20319;-71
2023/07/31 07:45:54;;;;;;;4.55;2.38;;;;;;;;;;5048049;28;20039;-68
2023/07/31 07:48:21;;;;;;;3.70;2.40;;;;;;;;;;5054820;28;20029;-69
2023/07/31 07:50:47;;;;;;;4.13;2.58;;;;;;;;;;5053478;28;20025;-69
2023/07/31 07:53:14;;;;;;;7.25;2.80;;;;;;;;;;5050097;28;20036;-68
2023/07/31 07:55:40;;;;;;;3.38;2.78;;;;;;;;;;5051012;28;20157;-70
2023/07/31 07:58:06;;;;;;;4.25;2.30;;;;;;;;;;5050479;28;20120;-70
2023/07/31 08:00:32;;;;;;;3.95;2.30;;;;;;;;;;5062474;28;20028;-69
2023/07/31 08:02:58;;;;;;;5.30;2.20;;;;;;;;;;5058229;28;20028;-69
2023/07/31 08:05:25;;;;;;;4.70;2.40;;;;;;;;;;5052391;28;20148;-69
2023/07/31 08:07:51;;;;;;;7.30;3.08;;;;;;;;;;5048579;28;20024;-69
2023/07/31 08:10:17;;;;;;;6.28;2.65;;;;;;;;;;5048617;28;20108;-70
2023/07/31 08:12:43;;;;;;;7.75;3.13;;;;;;;;;;5043622;28;20370;-70
2023/07/31 08:15:09;;;;;;;9.30;3.28;;;;;;;;;;5046696;28;20395;-69
2023/07/31 08:17:35;;;;;;;5.72;2.90;;;;;;;;;;5048323;28;20020;-70
2023/07/31 08:20:01;;;;;;;4.53;2.78;;;;;;;;;;5044615;28;20041;-69
2023/07/31 08:22:30;;;;;;;6.10;2.95;;;;;;;;;;5050651;28;20106;-69
2023/07/31 08:24:56;;;;;;;5.30;2.47;;;;;;;;;;5054226;28;20637;-67
2023/07/31 08:27:23;;;;;;;8.38;3.25;;;;;;;;;;5052493;28;20024;-70
2023/07/31 08:29:49;;;;;;;7.80;2.90;;;;;;;;;;5047736;28;20028;-69
2023/07/31 08:32:15;;;;;;;10.45;3.53;;;;;;;;;;5049095;28;20455;-69
2023/07/31 08:34:41;;;;;;;10.55;3.08;;;;;;;;;;5041650;28;20041;-70
2023/07/31 08:37:07;;;;;;;9.20;3.33;;;;;;;;;;5063163;28;20468;-69
2023/07/31 08:39:33;;;;;;;12.18;3.65;;;;;;;;;;5057809;28;20028;-70
2023/07/31 08:42:00;;;;;;;9.57;3.03;;;;;;;;;;5053430;28;20032;-69
2023/07/31 08:44:26;;;;;;;6.32;3.08;;;;;;;;;;5053070;28;20032;-69
2023/07/31 08:46:52;;;;;;;10.02;3.60;;;;;;;;;;5052800;28;20021;-69
2023/07/31 08:49:20;;;;;;;8.80;3.17;;;;;;;;;;5059532;28;20033;-69
2023/07/31 08:51:47;;;;;;;11.18;2.80;;;;;;;;;;5048455;28;20072;-70
2023/07/31 08:54:13;;;;;;;8.68;2.88;;;;;;;;;;5045636;28;20033;-70
2023/07/31 08:56:40;;;;;;;8.38;2.60;;;;;;;;;;5066324;28;20028;-70
2023/07/31 08:59:06;;;;;;;8.35;2.83;;;;;;;;;;5048728;28;20452;-70
2023/07/31 09:01:36;;;;;;;10.35;2.80;;;;;;;;;;5062416;28;20483;-70
2023/07/31 09:04:02;;;;;;;8.35;3.13;;;;;;;;;;5059464;28;20035;-70
2023/07/31 09:06:29;;;;;;;13.68;3.58;;;;;;;;;;5047066;28;20498;-70
2023/07/31 09:08:55;;;;;;;9.70;3.13;;;;;;;;;;5061417;28;20032;-69
2023/07/31 09:11:22;;;;;;;14.38;3.67;;;;;;;;;;5047881;28;20124;-70
2023/07/31 09:13:49;;;;;;;15.77;4.75;;;;;;;;;;5050275;28;20040;-69
2023/07/31 09:16:15;;;;;;;13.25;4.18;;;;;;;;;;5048113;28;20586;-70
2023/07/31 09:19:03;;;;;;;13.13;3.63;;;;;;;;;;5051303;28;20050;-70
2023/07/31 09:21:29;;;;;;;11.02;3.78;;;;;;;;;;5051511;28;20038;-70
2023/07/31 09:23:55;;;;;;;9.45;3.33;;;;;;;;;;5055090;28;20024;-70
2023/07/31 09:26:31;;;;;;;9.57;3.08;;;;;;;;;;5044655;28;20447;-70
2023/07/31 09:28:58;;;;;;;11.75;3.05;;;;;;;;;;5048733;28;20517;-70
2023/07/31 09:31:40;;;;;;;10.52;3.25;;;;;;;;;;5064309;28;20392;-70
2023/07/31 09:34:06;;;;;;;12.68;4.00;;;;;;;;;;5055699;28;20037;-70
2023/07/31 09:36:32;;;;;;;17.48;4.03;;;;;;;;;;5045752;28;20029;-71
2023/07/31 09:39:04;;;;;;;6.72;3.05;;;;;;;;;;5055718;28;20426;-70
2023/07/31 09:41:31;;;;;;;8.05;3.65;;;;;;;;;;5052373;28;20039;-70
2023/07/31 09:43:57;;;;;;;9.88;3.30;;;;;;;;;;5050462;28;20063;-71
2023/07/31 09:46:27;;;;;;;9.73;3.40;;;;;;;;;;5050667;28;20029;-70
2023/07/31 09:48:53;;;;;;;9.40;3.72;;;;;;;;;;5059777;28;20035;-70
2023/07/31 09:51:27;;;;;;;14.27;4.72;;;;;;;;;;5051271;28;20453;-70
2023/07/31 09:53:53;;;;;;;13.75;4.30;;;;;;;;;;5051270;28;20028;-70
2023/07/31 09:56:21;;;;;;;8.45;3.28;;;;;;;;;;5059526;28;20082;-70
2023/07/31 09:58:48;;;;;;;8.25;3.55;;;;;;;;;;5057102;28;20036;-70
2023/07/31 10:01:14;;;;;;;23.27;5.32;;;;;;;;;;5057019;28;20400;-70
2023/07/31 10:03:40;;;;;;;8.38;3.45;;;;;;;;;;5055226;28;20042;-70
2023/07/31 10:06:09;;;;;;;10.40;4.80;;;;;;;;;;5052220;28;20393;-70
2023/07/31 10:08:36;;;;;;;12.65;5.10;;;;;;;;;;5049381;28;20100;-71
2023/07/31 10:11:02;;;;;;;8.15;3.30;;;;;;;;;;5047874;28;20021;-71
2023/07/31 10:13:29;;;;;;;8.25;3.30;;;;;;;;;;5049016;28;20033;-70
2023/07/31 10:15:58;;;;;;;17.38;3.47;;;;;;;;;;5062862;28;20024;-70
2023/07/31 10:18:25;;;;;;;8.25;3.08;;;;;;;;;;5062646;28;20058;-70
2023/07/31 10:20:51;;;;;;;12.30;4.93;;;;;;;;;;5051992;28;20115;-71
2023/07/31 10:23:17;;;;;;;10.00;3.33;;;;;;;;;;5049645;28;20111;-70
2023/07/31 10:25:44;;;;;;;6.20;3.22;;;;;;;;;;5056404;28;20508;-70
2023/07/31 10:28:11;;;;;;;10.52;3.10;;;;;;;;;;5053442;28;20028;-70
2023/07/31 10:30:38;;;;;;;9.13;3.35;;;;;;;;;;5051743;28;20063;-68
2023/07/31 10:33:05;;;;;;;9.25;3.88;;;;;;;;;;5050787;28;20025;-69
2023/07/31 10:35:31;;;;;;;10.75;3.65;;;;;;;;;;5050409;28;20076;-69
2023/07/31 10:38:10;;;;;;;8.10;3.20;;;;;;;;;;5050841;28;20055;-69
2023/07/31 10:40:37;;;;;;;9.60;4.20;;;;;;;;;;5050787;28;20032;-69
2023/07/31 10:43:03;;;;;;;7.90;3.22;;;;;;;;;;5053179;28;20102;-68
2023/07/31 10:45:36;;;;;;;9.55;3.38;;;;;;;;;;5049275;28;20017;-68
2023/07/31 10:48:03;;;;;;;7.28;3.50;;;;;;;;;;5055398;28;20024;-68
2023/07/31 10:50:32;;;;;;;11.70;3.78;;;;;;;;;;5044928;28;20037;-69
2023/07/31 10:52:58;;;;;;;10.30;3.45;;;;;;;;;;5049386;28;20113;-70
2023/07/31 10:55:31;;;;;;;7.18;3.50;;;;;;;;;;5049143;28;20032;-70
2023/07/31 10:57:58;;;;;;;11.50;3.80;;;;;;;;;;5055083;28;20132;-71
2023/07/31 11:00:24;;;;;;;8.68;3.20;;;;;;;;;;5062580;28;20151;-71
2023/07/31 11:03:16;;;;;;;10.30;3.55;;;;;;;;;;5058047;28;20033;-70
2023/07/31 11:05:47;;;;;;;6.38;3.00;;;;;;;;;;5047308;28;20041;-70
2023/07/31 11:08:13;;;;;;;7.80;3.25;;;;;;;;;;5041952;28;20036;-67
2023/07/31 11:10:40;;;;;;;8.10;2.70;;;;;;;;;;5045162;28;20526;-71
2023/07/31 11:13:06;;;;;;;10.18;3.55;;;;;;;;;;5050387;28;20107;-71
2023/07/31 11:15:32;;;;;;;8.25;3.33;;;;;;;;;;5046844;28;20036;-70
2023/07/31 11:17:58;;;;;;;11.80;3.70;;;;;;;;;;5045907;28;20493;-71
2023/07/31 11:20:25;;;;;;;6.80;2.85;;;;;;;;;;5055700;28;20064;-71
2023/07/31 11:22:51;;;;;;;9.70;3.70;;;;;;;;;;5047330;28;20120;-70
2023/07/31 11:25:17;;;;;;;8.32;2.72;;;;;;;;;;5049910;28;20033;-70
2023/07/31 11:27:43;;;;;;;9.20;3.08;;;;;;;;;;5055618;28;20031;-70
2023/07/31 11:30:10;;;;;;;10.27;2.90;;;;;;;;;;5058437;28;20579;-70
2023/07/31 11:32:39;;;;;;;9.57;3.35;;;;;;;;;;5053065;28;20032;-69
2023/07/31 11:35:08;;;;;;;5.68;2.80;;;;;;;;;;5050670;28;20079;-67
2023/07/31 11:37:44;;;;;;;8.35;3.08;;;;;;;;;;5047060;28;20082;-67
2023/07/31 11:40:10;;;;;;;5.00;2.95;;;;;;;;;;5052727;28;20418;-69
2023/07/31 11:42:36;;;;;;;8.60;2.75;;;;;;;;;;5049956;28;20124;-70
2023/07/31 11:45:06;;;;;;;4.75;2.42;;;;;;;;;;5057040;28;20046;-70
2023/07/31 11:47:35;;;;;;;5.55;3.25;;;;;;;;;;5047829;28;20519;-70
2023/07/31 11:50:03;;;;;;;7.50;2.67;;;;;;;;;;5047311;28;20055;-70
2023/07/31 11:52:34;;;;;;;3.22;2.22;;;;;;;;;;5051403;28;20040;-70
2023/07/31 11:55:00;;;;;;;3.22;2.05;;;;;;;;;;5049258;28;20115;-70
2023/07/31 11:57:27;;;;;;;4.60;2.70;;;;;;;;;;5051542;28;20028;-71
2023/07/31 11:59:53;;;;;;;5.72;2.17;;;;;;;;;;5044773;28;20025;-70
2023/07/31 12:02:20;;;;;;;6.43;2.45;;;;;;;;;;5048170;28;20033;-70
2023/07/31 12:04:47;;;;;;;4.13;2.08;;;;;;;;;;5051573;28;20042;-70
2023/07/31 12:07:13;;;;;;;6.85;2.50;;;;;;;;;;5060395;28;20211;-70
2023/07/31 12:09:50;;;;;;;5.63;2.42;;;;;;;;;;5047801;28;20062;-70
2023/07/31 12:12:20;;;;;;;5.95;2.45;;;;;;;;;;5046913;28;20112;-70
2023/07/31 12:14:47;;;;;;;5.68;3.15;;;;;;;;;;5049488;28;20028;-71
2023/07/31 12:17:13;;;;;;;3.35;2.15;;;;;;;;;;5057762;28;20112;-70
2023/07/31 12:19:39;;;;;;;8.27;2.72;;;;;;;;;;5051759;28;20058;-71
2023/07/31 12:22:12;;;;;;;6.15;2.42;;;;;;;;;;5049325;28;20025;-71
2023/07/31 12:24:39;;;;;;;4.13;2.50;;;;;;;;;;5054454;28;20029;-70
2023/07/31 12:27:17;;;;;;;4.40;2.28;;;;;;;;;;5048830;28;20039;-71
2023/07/31 12:29:44;;;;;;;5.40;2.25;;;;;;;;;;5049662;28;20045;-71
2023/07/31 12:32:23;;;;;;;7.47;2.95;;;;;;;;;;5050871;28;20234;-71
2023/07/31 12:34:50;;;;;;;5.53;2.17;;;;;;;;;;5051847;28;20349;-71
2023/07/31 12:37:16;;;;;;;5.00;2.50;;;;;;;;;;5054096;28;20266;-71
2023/07/31 12:39:42;;;;;;;3.25;2.03;;;;;;;;;;5059762;28;20479;-71
2023/07/31 12:42:08;;;;;;;5.45;2.30;;;;;;;;;;5050536;28;20035;-71
2023/07/31 12:44:34;;;;;;;4.40;2.63;;;;;;;;;;5055885;28;20032;-71
2023/07/31 12:47:01;;;;;;;5.45;2.53;;;;;;;;;;5054664;28;20083;-71
2023/07/31 12:49:27;;;;;;;6.40;2.63;;;;;;;;;;5054449;28;20029;-71
2023/07/31 12:51:53;;;;;;;4.70;2.47;;;;;;;;;;5051082;28;20423;-71
2023/07/31 12:54:20;;;;;;;6.32;2.40;;;;;;;;;;5055419;28;20504;-69
2023/07/31 12:56:46;;;;;;;3.67;2.65;;;;;;;;;;5059463;28;20025;-70
2023/07/31 12:59:12;;;;;;;6.20;2.53;;;;;;;;;;5049420;28;20577;-70
2023/07/31 13:01:38;;;;;;;6.28;2.20;;;;;;;;;;5051507;28;20130;-71
2023/07/31 13:04:04;;;;;;;3.80;2.60;;;;;;;;;;5052729;28;20027;-70
2023/07/31 13:06:30;;;;;;;9.27;3.22;;;;;;;;;;5052548;28;20033;-71
2023/07/31 13:08:56;;;;;;;5.45;2.50;;;;;;;;;;5049856;28;20400;-70
2023/07/31 13:11:22;;;;;;;4.82;2.50;;;;;;;;;;5064805;28;20033;-71
2023/07/31 13:13:49;;;;;;;4.85;2.83;;;;;;;;;;5054478;28;20134;-71
2023/07/31 13:16:15;;;;;;;3.63;2.95;;;;;;;;;;5049852;28;20098;-70
2023/07/31 13:18:41;;;;;;;7.15;2.92;;;;;;;;;;5059596;28;20029;-72
2023/07/31 13:21:07;;;;;;;4.35;2.72;;;;;;;;;;5047782;28;20084;-72
2023/07/31 13:23:33;;;;;;;6.32;2.60;;;;;;;;;;5054091;28;20036;-71
2023/07/31 13:25:59;;;;;;;8.00;2.70;;;;;;;;;;5053184;28;20075;-72
2023/07/31 13:28:25;;;;;;;5.93;2.72;;;;;;;;;;5049129;28;20031;-71
2023/07/31 13:30:51;;;;;;;4.53;2.22;;;;;;;;;;5056759;28;20478;-71
2023/07/31 13:33:17;;;;;;;5.43;2.90;;;;;;;;;;5062100;28;20101;-70
2023/07/31 13:35:44;;;;;;;6.68;2.75;;;;;;;;;;5053153;28;20094;-71
2023/07/31 13:38:10;;;;;;;4.78;3.05;;;;;;;;;;5052528;28;20032;-71
2023/07/31 13:40:36;;;;;;;6.57;3.00;;;;;;;;;;5049006;28;20029;-71
2023/07/31 13:43:02;;;;;;;4.93;2.90;;;;;;;;;;5057710;28;20033;-71
2023/07/31 13:45:28;;;;;;;5.28;2.80;;;;;;;;;;5048423;28;20476;-71
2023/07/31 13:47:54;;;;;;;10.55;2.95;;;;;;;;;;5048488;28;20040;-71
2023/07/31 13:50:22;;;;;;;4.85;2.40;;;;;;;;;;5051699;28;20032;-71
2023/07/31 13:52:48;;;;;;;5.40;3.50;;;;;;;;;;5049796;28;20527;-71
2023/07/31 13:55:14;;;;;;;4.88;2.72;;;;;;;;;;5058459;28;20427;-71
2023/07/31 13:57:40;;;;;;;8.52;2.72;;;;;;;;;;5053137;28;20328;-72
2023/07/31 14:00:08;;;;;;;4.90;2.78;;;;;;;;;;5055592;28;20202;-72
2023/07/31 14:02:34;;;;;;;5.72;2.47;;;;;;;;;;5056579;28;20082;-74
2023/07/31 14:05:00;;;;;;;4.68;2.25;;;;;;;;;;5053867;28;20029;-70
2023/07/31 14:07:26;;;;;;;5.03;2.42;;;;;;;;;;5056028;28;20095;-67
2023/07/31 14:09:52;;;;;;;6.28;2.63;;;;;;;;;;5056060;28;20032;-69
2023/07/31 14:12:18;;;;;;;4.90;2.38;;;;;;;;;;5064899;28;20036;-72
2023/07/31 14:14:44;;;;;;;3.15;2.50;;;;;;;;;;5056932;28;20029;-72
2023/07/31 14:17:10;;;;;;;4.75;2.45;;;;;;;;;;5053311;28;20498;-73
2023/07/31 14:19:36;;;;;;;6.20;2.65;;;;;;;;;;5052973;28;20116;-72
2023/07/31 14:22:03;;;;;;;9.48;2.58;;;;;;;;;;5051207;28;20025;-72
2023/07/31 14:24:29;;;;;;;8.98;3.15;;;;;;;;;;5052053;28;20032;-72
2023/07/31 14:26:55;;;;;;;7.30;2.70;;;;;;;;;;5052470;28;20029;-72
2023/07/31 14:29:21;;;;;;;7.25;2.70;;;;;;;;;;5044126;28;20076;-72
2023/07/31 14:31:47;;;;;;;4.22;2.33;;;;;;;;;;5050896;28;20031;-72
2023/07/31 14:34:13;;;;;;;6.93;2.65;;;;;;;;;;5054591;28;20792;-72
2023/07/31 14:36:39;;;;;;;4.45;2.15;;;;;;;;;;5052380;28;20033;-72
2023/07/31 14:39:05;;;;;;;4.00;2.22;;;;;;;;;;5053555;28;20048;-72
2023/07/31 14:41:32;;;;;;;4.07;2.10;;;;;;;;;;5056988;28;20033;-73